Kezdőlap
METAR-TAF:

METAR-TAF

Repülőterek :

Kanton, Kína

földrajzi szélesség: 23-10N, földrajzi hosszúság: 113-20E, magasság: 8 m

Jelenlegi meteorológiai megfigyelések

A jelentés 15 perccel ezelõtt készült, 17:30 UTC
Különbözõ irányokból fújó szél 2 kt
Hőmérséklet 29°C
Páratartalom 74%
Légköri nyomás 1006 hPa
Látótávolság 10 km, vagy több
felhőtlen 1500 m magasságban, és nincs gomolyfelhõ

METAR: ZGGG 221730Z VRB01MPS CAVOK 29/24 Q1006 NOSIG

Idő: 01:45 (17:45 UTC)

Előrejelzés

A jelentés 2 órával és 44 perccel ezelõtt készült, 15:01 UTC
Az előrejelzés 22-én 18 óra UTC és 23-én 18 óra UTC között érvényes
Keleti szél 4 kt
Látótávolság 10 km, vagy több
felhőtlen 1500 m magasságban, és nincs gomolyfelhõ
23-én 06 óra UTC és 23-én 12 óra UTC között ideiglenes
Kevés felhő 3000 lábon, Cumulonimbus.
Szakadozott felhőzet 3300 lábon

TAF: ZGGG 221501Z 2218/2318 10002MPS CAVOK TX35/2307Z TN27/2223Z TEMPO 2306/2312 FEW030CB BKN033

Meteorológiai megfigyelések és előrejelzések több, mint 4000 repülőtéren (METAR és TAF jelentéseket).

A térképen piros és sárga pontok jelzik az elérhető meteorológiai állomásokat.

Mozgassa az egeret a pont fölött, hogy megjelenjen az állomás neve.

Azután kattintson az időjárási megfigyelések és előrejelzések megtekintéséhez.

A térkép megváltoztatása: kattintson a fekete keresztel jelölt zöld gombra ráközelítéshez, a vonallal jelölt zöld gombra távolításhoz, vagy a zöld nyilakra a szomszédos térképek eléréséhez.


METAR-TAF: